• Join FlightAware (Why Join?)
  • Login
  • US Flag 
12:14PM EDT


 

Airport Tracker/Info


-or-


 

Live Flight TrackerFlight Track Log ✈ WJA1211 ✈ 18-Apr-2013 ✈ KLGA - CYYZ

Flight Track Log - Related Links

Times and Time Zones

All times are in EDT time to prevent confusion due to time zone crossing. See the WJA1211 flight status page for this flight to view local times or setup timezone preferences in your user account.

Time Position Orientation Groundspeed Altitude Reporting Facility
EDT Latitude Longitude Course Direction KTS MPH feet Rate Location/Type
05:31PM 40.7500 -73.8333 123° Southeast 160 184 1,900  Level New York TRACON
05:32PM 40.7333 -73.8000 123° Southeast 222 255 4,100 2,460 Climbing New York TRACON
05:33PM 40.8000 -73.7833 11° North 263 303 6,900 3,000 Climbing New York TRACON
05:34PM 40.8667 -73.7833 360° North 260 299 10,200 3,240 Climbing New York TRACON
05:34PM 40.9167 -73.8333 323° Northwest 250 288 13,100 1,860 Climbing New York TRACON
05:37PM 41.0631 -74.0128 317° Northwest 368 423 16,000 1,140 Climbing New York Center
05:38PM 41.1339 -74.0878 321° Northwest 368 423 16,900 480 Climbing New York Center
05:39PM 41.1947 -74.2094 304° West 358 412 17,000 120 Climbing New York Center
05:40PM 41.2417 -74.3139 301° West 358 412 17,200 1,140 Climbing New York Center
05:41PM 41.2925 -74.4242 302° West 363 418 19,300 2,700 Climbing New York Center
05:42PM 41.3592 -74.5578 304° West 385 443 22,700 2,880 Climbing New York Center
05:43PM 41.4053 -74.6739 298° West 392 451 25,200 2,460 Climbing New York Center
05:44PM 41.4636 -74.7989 302° West 398 458 27,700 2,340 Climbing New York Center
05:45PM 41.5236 -74.9272 302° West 403 464 29,900 1,140 Climbing New York Center
05:46PM 41.5814 -75.0583 301° West 408 470 30,000  Climbing New York Center
05:47PM 41.6414 -75.1900 301° West 414 476 30,000  Level New York Center
05:48PM 41.6986 -75.3214 300° West 414 476 30,000  Level New York Center
05:49PM 41.7581 -75.4533 301° West 414 476 30,000  Level New York Center
05:50PM 41.8253 -75.6000 302° West 414 476 30,000  Level New York Center
05:51PM 41.8803 -75.7294 300° West 414 476 30,000  Level New York Center
05:52PM 41.9392 -75.8594 301° West 414 476 30,000  Level New York Center
05:53PM 41.9958 -75.9919 300° West 414 476 30,000  Level New York Center
05:54PM 42.0411 -76.0989 300° West 414 476 30,000  Level New York Center
05:56PM 42.1694 -76.4000 300° West 403 464 30,000  Level Cleveland Center
05:57PM 42.2283 -76.5308 301° West 403 464 30,000  Level Cleveland Center
05:58PM 42.2831 -76.6592 300° West 403 464 30,000  Level Cleveland Center
05:59PM 42.3394 -76.7906 300° West 403 464 30,000  Level Cleveland Center
06:00PM 42.3958 -76.9222 300° West 403 464 30,000  Level Cleveland Center
06:01PM 42.4481 -77.0544 298° West 403 464 30,000  Level Cleveland Center
06:02PM 42.4917 -77.1956 293° West 403 464 30,000  Level Cleveland Center
06:03PM 42.5333 -77.3342 292° West 398 458 30,000  Level Cleveland Center
06:04PM 42.5789 -77.4758 294° West 403 464 30,000  Level Cleveland Center
06:05PM 42.6203 -77.6175 292° West 408 470 30,000  Level Cleveland Center
06:06PM 42.6633 -77.7567 293° West 408 470 30,000 -240 Level Cleveland Center
06:07PM 42.7039 -77.8878 293° West 408 470 29,600 -720 Descending Cleveland Center
06:08PM 42.7444 -78.0189 293° West 398 458 28,600 -840 Descending Cleveland Center
06:09PM 42.7828 -78.1503 292° West 388 447 28,000 -600 Descending Cleveland Center
06:10PM 42.8208 -78.2792 292° West 383 441 27,400 -840 Descending Cleveland Center
06:11PM 42.8586 -78.4050 292° West 367 422 26,400 -960 Descending Cleveland Center
06:12PM 42.8964 -78.5314 292° West 367 422 25,500 -960 Descending Cleveland Center
06:13PM 42.9425 -78.6658 295° West 372 428 24,500 -1,500 Descending Cleveland Center
06:14PM 43.0069 -78.7917 305° West 392 451 22,600 -2,460 Descending Cleveland Center
06:15PM 43.1167 -79.0000 306° West 400 460 18,100 -2,880 Descending Toronto Center
06:16PM 43.1833 -79.1000 312° West 390 449 15,100 -2,520 Descending Toronto Center
06:17PM 43.2333 -79.2000 304° West 370 426 13,100 -1,560 Descending Toronto Center
06:18PM 43.3000 -79.3167 308° West 350 403 12,000 -900 Descending Toronto Center
06:19PM 43.3667 -79.3833 324° Northwest 330 380 11,300 -1,020 Descending Toronto Center
06:20PM 43.4500 -79.4333 336° Northwest 310 357 10,000 -1,620 Descending Toronto Center
06:21PM 43.5167 -79.4667 340° North 280 322 8,100 -1,320 Descending Toronto Center
06:22PM 43.6000 -79.5167 337° Northwest 280 322 7,400 -1,020 Descending Toronto Center
06:23PM 43.6500 -79.4333 50° Northeast 310 357 6,100 -1,320 Descending Toronto Center
06:24PM 43.7167 -79.3500 42° Northeast 300 345 4,800 -900 Descending Toronto Center
06:25PM 43.7667 -79.4000 324° Northwest 220 253 4,300 -900 Descending Toronto Center
06:26PM 43.7500 -79.4500 245° Southwest 160 184 3,100 -1,080 Descending Toronto Center
06:27PM 43.7333 -79.5000 245° Southwest 130 150 2,200 -720 Descending Toronto Center
06:28PM 43.7000 -79.5167 200° South 120 138 1,700 -540 Descending Toronto Center
06:29PM 43.6833 -79.5333 216° Southwest 100 115 1,200 -600 Descending Toronto Center
06:30PM 43.6667 -79.5833 245° Southwest 110 127 500 -720 Descending Toronto Center
06:32PM 43.6667 -79.6167 238° Southwest  Level FlightAware Approximate